sensor_id;sensor_type;location;lat;lon;timestamp;P1;durP1;ratioP1;P2;durP2;ratioP2
55346;SDS011;41218;55.700;38.270;2024-01-10T00:08:08;8.87;;;2.27;;
55346;SDS011;41218;55.700;38.270;2024-01-10T00:13:08;7.03;;;2.47;;
55346;SDS011;41218;55.700;38.270;2024-01-10T00:18:09;5.25;;;1.95;;
55346;SDS011;41218;55.700;38.270;2024-01-10T00:23:10;4.47;;;2.50;;
55346;SDS011;41218;55.700;38.270;2024-01-10T00:28:10;7.07;;;2.40;;
55346;SDS011;41218;55.700;38.270;2024-01-10T00:33:11;5.05;;;2.63;;
55346;SDS011;41218;55.700;38.270;2024-01-10T00:38:13;2.90;;;1.52;;
55346;SDS011;41218;55.700;38.270;2024-01-10T00:43:13;2.47;;;1.85;;
55346;SDS011;41218;55.700;38.270;2024-01-10T00:48:14;6.30;;;2.85;;
55346;SDS011;41218;55.700;38.270;2024-01-10T00:53:15;6.32;;;2.55;;
55346;SDS011;41218;55.700;38.270;2024-01-10T00:58:15;8.80;;;2.42;;
55346;SDS011;41218;55.700;38.270;2024-01-10T01:03:16;2.85;;;1.23;;
55346;SDS011;41218;55.700;38.270;2024-01-10T01:08:17;6.15;;;2.67;;
55346;SDS011;41218;55.700;38.270;2024-01-10T01:13:17;1.50;;;1.20;;
55346;SDS011;41218;55.700;38.270;2024-01-10T01:18:18;3.10;;;1.83;;
55346;SDS011;41218;55.700;38.270;2024-01-10T01:23:19;2.83;;;1.95;;
55346;SDS011;41218;55.700;38.270;2024-01-10T01:28:20;2.65;;;0.98;;
55346;SDS011;41218;55.700;38.270;2024-01-10T01:33:20;1.70;;;0.93;;
55346;SDS011;41218;55.700;38.270;2024-01-10T01:38:21;0.75;;;0.38;;
55346;SDS011;41218;55.700;38.270;2024-01-10T01:43:22;0.70;;;0.70;;
55346;SDS011;41218;55.700;38.270;2024-01-10T01:48:24;1.90;;;0.55;;
55346;SDS011;41218;55.700;38.270;2024-01-10T01:53:25;1.05;;;0.82;;
55346;SDS011;41218;55.700;38.270;2024-01-10T01:58:28;0.70;;;0.70;;
55346;SDS011;41218;55.700;38.270;2024-01-10T02:03:30;5.75;;;3.17;;
55346;SDS011;41218;55.700;38.270;2024-01-10T02:08:33;4.57;;;2.65;;
55346;SDS011;41218;55.700;38.270;2024-01-10T02:13:34;11.15;;;3.50;;
55346;SDS011;41218;55.700;38.270;2024-01-10T02:18:35;3.67;;;1.85;;
55346;SDS011;41218;55.700;38.270;2024-01-10T02:23:36;10.10;;;4.57;;
55346;SDS011;41218;55.700;38.270;2024-01-10T02:28:37;6.97;;;3.17;;
55346;SDS011;41218;55.700;38.270;2024-01-10T02:33:37;4.20;;;1.98;;
55346;SDS011;41218;55.700;38.270;2024-01-10T02:38:38;7.50;;;2.58;;
55346;SDS011;41218;55.700;38.270;2024-01-10T02:43:38;7.95;;;4.18;;
55346;SDS011;41218;55.700;38.270;2024-01-10T02:48:39;10.60;;;4.25;;
55346;SDS011;41218;55.700;38.270;2024-01-10T02:53:40;7.97;;;3.28;;
55346;SDS011;41218;55.700;38.270;2024-01-10T02:58:40;9.55;;;3.53;;
55346;SDS011;41218;55.700;38.270;2024-01-10T03:03:41;3.10;;;1.98;;
55346;SDS011;41218;55.700;38.270;2024-01-10T03:08:41;4.38;;;1.95;;
55346;SDS011;41218;55.700;38.270;2024-01-10T03:13:45;6.03;;;2.45;;
55346;SDS011;41218;55.700;38.270;2024-01-10T03:18:47;3.05;;;1.50;;
55346;SDS011;41218;55.700;38.270;2024-01-10T03:23:48;2.90;;;1.67;;
55346;SDS011;41218;55.700;38.270;2024-01-10T03:33:49;1.50;;;0.93;;
55346;SDS011;41218;55.700;38.270;2024-01-10T03:38:50;4.93;;;2.22;;
55346;SDS011;41218;55.700;38.270;2024-01-10T03:48:52;3.33;;;1.47;;
55346;SDS011;41218;55.700;38.270;2024-01-10T03:53:52;0.70;;;0.70;;
55346;SDS011;41218;55.700;38.270;2024-01-10T03:58:55;5.88;;;1.75;;
55346;SDS011;41218;55.700;38.270;2024-01-10T04:08:56;3.40;;;2.03;;
55346;SDS011;41218;55.700;38.270;2024-01-10T04:18:57;2.60;;;1.40;;
55346;SDS011;41218;55.700;38.270;2024-01-10T04:28:58;2.47;;;1.27;;
55346;SDS011;41218;55.700;38.270;2024-01-10T04:33:59;1.40;;;1.20;;
55346;SDS011;41218;55.700;38.270;2024-01-10T04:44:00;0.32;;;0.32;;
55346;SDS011;41218;55.700;38.270;2024-01-10T04:54:01;1.37;;;1.20;;
55346;SDS011;41218;55.700;38.270;2024-01-10T04:59:02;1.00;;;0.57;;
55346;SDS011;41218;55.700;38.270;2024-01-10T05:04:03;1.23;;;0.88;;
55346;SDS011;41218;55.700;38.270;2024-01-10T05:09:04;2.40;;;1.65;;
55346;SDS011;41218;55.700;38.270;2024-01-10T05:14:05;0.93;;;0.77;;
55346;SDS011;41218;55.700;38.270;2024-01-10T05:19:05;1.00;;;0.93;;
55346;SDS011;41218;55.700;38.270;2024-01-10T05:24:06;1.40;;;1.08;;
55346;SDS011;41218;55.700;38.270;2024-01-10T05:29:06;1.23;;;1.05;;
55346;SDS011;41218;55.700;38.270;2024-01-10T05:34:08;4.47;;;1.95;;
55346;SDS011;41218;55.700;38.270;2024-01-10T05:39:08;6.65;;;2.38;;
55346;SDS011;41218;55.700;38.270;2024-01-10T05:44:09;2.03;;;0.88;;
55346;SDS011;41218;55.700;38.270;2024-01-10T05:49:09;1.95;;;1.25;;
55346;SDS011;41218;55.700;38.270;2024-01-10T05:54:11;2.03;;;1.35;;
55346;SDS011;41218;55.700;38.270;2024-01-10T05:59:12;0.80;;;0.80;;
55346;SDS011;41218;55.700;38.270;2024-01-10T06:04:13;1.67;;;1.25;;
55346;SDS011;41218;55.700;38.270;2024-01-10T06:09:13;2.10;;;0.93;;
55346;SDS011;41218;55.700;38.270;2024-01-10T06:14:15;2.53;;;1.05;;
55346;SDS011;41218;55.700;38.270;2024-01-10T06:19:16;3.75;;;1.65;;
55346;SDS011;41218;55.700;38.270;2024-01-10T06:24:18;2.03;;;1.05;;
55346;SDS011;41218;55.700;38.270;2024-01-10T06:29:19;0.82;;;0.77;;
55346;SDS011;41218;55.700;38.270;2024-01-10T06:34:19;1.35;;;0.55;;
55346;SDS011;41218;55.700;38.270;2024-01-10T06:39:21;0.93;;;0.93;;
55346;SDS011;41218;55.700;38.270;2024-01-10T06:44:21;4.00;;;1.40;;
55346;SDS011;41218;55.700;38.270;2024-01-10T06:49:22;1.70;;;1.27;;
55346;SDS011;41218;55.700;38.270;2024-01-10T06:54:22;3.53;;;1.20;;
55346;SDS011;41218;55.700;38.270;2024-01-10T06:59:23;6.68;;;0.70;;
55346;SDS011;41218;55.700;38.270;2024-01-10T07:04:23;1.23;;;1.10;;
55346;SDS011;41218;55.700;38.270;2024-01-10T07:09:25;0.85;;;0.85;;
55346;SDS011;41218;55.700;38.270;2024-01-10T07:14:25;2.13;;;1.42;;
55346;SDS011;41218;55.700;38.270;2024-01-10T07:19:26;4.15;;;1.00;;
55346;SDS011;41218;55.700;38.270;2024-01-10T07:24:27;2.58;;;1.33;;
55346;SDS011;41218;55.700;38.270;2024-01-10T07:29:27;1.52;;;1.42;;
55346;SDS011;41218;55.700;38.270;2024-01-10T07:34:28;1.20;;;0.95;;
55346;SDS011;41218;55.700;38.270;2024-01-10T07:39:28;1.38;;;0.95;;
55346;SDS011;41218;55.700;38.270;2024-01-10T07:44:30;0.60;;;0.45;;
55346;SDS011;41218;55.700;38.270;2024-01-10T07:49:30;1.20;;;1.10;;
55346;SDS011;41218;55.700;38.270;2024-01-10T07:54:32;0.82;;;0.82;;
55346;SDS011;41218;55.700;38.270;2024-01-10T07:59:32;1.27;;;1.05;;
55346;SDS011;41218;55.700;38.270;2024-01-10T08:04:33;1.52;;;0.82;;
55346;SDS011;41218;55.700;38.270;2024-01-10T08:09:34;0.70;;;0.70;;
55346;SDS011;41218;55.700;38.270;2024-01-10T08:14:34;0.70;;;0.70;;
55346;SDS011;41218;55.700;38.270;2024-01-10T08:19:35;4.88;;;1.17;;
55346;SDS011;41218;55.700;38.270;2024-01-10T08:24:36;1.05;;;0.60;;
55346;SDS011;41218;55.700;38.270;2024-01-10T08:29:36;2.25;;;1.27;;
55346;SDS011;41218;55.700;38.270;2024-01-10T08:34:37;1.08;;;0.73;;
55346;SDS011;41218;55.700;38.270;2024-01-10T08:39:40;0.60;;;0.52;;
55346;SDS011;41218;55.700;38.270;2024-01-10T08:44:43;1.77;;;0.45;;
55346;SDS011;41218;55.700;38.270;2024-01-10T08:49:43;3.03;;;0.77;;
55346;SDS011;41218;55.700;38.270;2024-01-10T08:54:44;0.45;;;0.45;;
55346;SDS011;41218;55.700;38.270;2024-01-10T08:59:44;0.63;;;0.50;;
55346;SDS011;41218;55.700;38.270;2024-01-10T09:04:46;2.85;;;0.90;;
55346;SDS011;41218;55.700;38.270;2024-01-10T09:09:47;1.77;;;0.77;;
55346;SDS011;41218;55.700;38.270;2024-01-10T09:14:48;3.03;;;1.10;;
55346;SDS011;41218;55.700;38.270;2024-01-10T09:19:49;0.45;;;0.45;;
55346;SDS011;41218;55.700;38.270;2024-01-10T09:24:49;2.15;;;0.40;;
55346;SDS011;41218;55.700;38.270;2024-01-10T09:29:50;0.68;;;0.68;;
55346;SDS011;41218;55.700;38.270;2024-01-10T09:34:50;2.03;;;1.27;;
55346;SDS011;41218;55.700;38.270;2024-01-10T09:39:51;1.90;;;1.08;;
55346;SDS011;41218;55.700;38.270;2024-01-10T09:44:52;2.92;;;0.70;;
55346;SDS011;41218;55.700;38.270;2024-01-10T09:49:53;1.23;;;0.75;;
55346;SDS011;41218;55.700;38.270;2024-01-10T09:54:54;0.60;;;0.60;;
55346;SDS011;41218;55.700;38.270;2024-01-10T09:59:56;0.82;;;0.70;;
55346;SDS011;41218;55.700;38.270;2024-01-10T10:05:01;0.90;;;0.65;;
55346;SDS011;41218;55.700;38.270;2024-01-10T10:10:07;0.30;;;0.30;;
55346;SDS011;41218;55.700;38.270;2024-01-10T10:15:15;0.43;;;0.43;;
55346;SDS011;41218;55.700;38.270;2024-01-10T10:20:24;0.38;;;0.38;;
55346;SDS011;41218;55.700;38.270;2024-01-10T10:25:28;0.80;;;0.75;;
55346;SDS011;41218;55.700;38.270;2024-01-10T10:30:31;1.08;;;0.77;;
55346;SDS011;41218;55.700;38.270;2024-01-10T10:35:33;1.23;;;0.75;;
55346;SDS011;41218;55.700;38.270;2024-01-10T10:40:34;0.45;;;0.43;;
55346;SDS011;41218;55.700;38.270;2024-01-10T10:45:35;0.68;;;0.65;;
55346;SDS011;41218;55.700;38.270;2024-01-10T10:50:36;0.40;;;0.40;;
55346;SDS011;41218;55.700;38.270;2024-01-10T10:55:37;0.30;;;0.30;;
55346;SDS011;41218;55.700;38.270;2024-01-10T11:00:39;0.52;;;0.50;;
55346;SDS011;41218;55.700;38.270;2024-01-10T11:05:41;4.95;;;0.68;;
55346;SDS011;41218;55.700;38.270;2024-01-10T11:10:42;8.93;;;0.68;;
55346;SDS011;41218;55.700;38.270;2024-01-10T11:21:23;2.33;;;0.98;;
55346;SDS011;41218;55.700;38.270;2024-01-10T11:26:31;0.30;;;0.30;;
55346;SDS011;41218;55.700;38.270;2024-01-10T11:31:33;1.73;;;1.20;;
55346;SDS011;41218;55.700;38.270;2024-01-10T11:36:34;1.30;;;0.93;;
55346;SDS011;41218;55.700;38.270;2024-01-10T11:41:35;0.77;;;0.77;;
55346;SDS011;41218;55.700;38.270;2024-01-10T11:51:47;1.00;;;0.55;;
55346;SDS011;41218;55.700;38.270;2024-01-10T11:56:49;0.80;;;0.60;;
55346;SDS011;41218;55.700;38.270;2024-01-10T12:01:50;0.40;;;0.40;;
55346;SDS011;41218;55.700;38.270;2024-01-10T12:06:52;1.00;;;0.80;;
55346;SDS011;41218;55.700;38.270;2024-01-10T12:11:52;1.42;;;0.80;;
55346;SDS011;41218;55.700;38.270;2024-01-10T12:16:53;1.27;;;1.05;;
55346;SDS011;41218;55.700;38.270;2024-01-10T12:21:54;6.22;;;1.70;;
55346;SDS011;41218;55.700;38.270;2024-01-10T12:31:55;0.53;;;0.53;;
55346;SDS011;41218;55.700;38.270;2024-01-10T12:36:56;0.55;;;0.55;;
55346;SDS011;41218;55.700;38.270;2024-01-10T12:41:57;0.60;;;0.60;;
55346;SDS011;41218;55.700;38.270;2024-01-10T12:46:58;0.68;;;0.68;;
55346;SDS011;41218;55.700;38.270;2024-01-10T12:52:00;0.63;;;0.40;;
55346;SDS011;41218;55.700;38.270;2024-01-10T12:57:00;0.63;;;0.63;;
55346;SDS011;41218;55.700;38.270;2024-01-10T13:02:01;0.90;;;0.47;;
55346;SDS011;41218;55.700;38.270;2024-01-10T13:07:01;1.20;;;0.50;;
55346;SDS011;41218;55.700;38.270;2024-01-10T13:12:02;1.05;;;0.95;;
55346;SDS011;41218;55.700;38.270;2024-01-10T13:17:03;0.50;;;0.50;;
55346;SDS011;41218;55.700;38.270;2024-01-10T13:22:04;0.77;;;0.57;;
55346;SDS011;41218;55.700;38.270;2024-01-10T13:27:05;0.77;;;0.50;;
55346;SDS011;41218;55.700;38.270;2024-01-10T13:32:06;0.60;;;0.60;;
55346;SDS011;41218;55.700;38.270;2024-01-10T13:37:07;1.13;;;0.90;;
55346;SDS011;41218;55.700;38.270;2024-01-10T13:42:10;0.65;;;0.60;;
55346;SDS011;41218;55.700;38.270;2024-01-10T13:47:11;3.00;;;1.08;;
55346;SDS011;41218;55.700;38.270;2024-01-10T13:52:11;1.95;;;0.82;;
55346;SDS011;41218;55.700;38.270;2024-01-10T13:57:12;0.85;;;0.68;;
55346;SDS011;41218;55.700;38.270;2024-01-10T14:02:12;0.95;;;0.75;;
55346;SDS011;41218;55.700;38.270;2024-01-10T14:07:14;1.08;;;1.02;;
55346;SDS011;41218;55.700;38.270;2024-01-10T14:12:14;7.97;;;1.02;;
55346;SDS011;41218;55.700;38.270;2024-01-10T14:17:15;5.15;;;1.23;;
55346;SDS011;41218;55.700;38.270;2024-01-10T14:22:15;0.50;;;0.50;;
55346;SDS011;41218;55.700;38.270;2024-01-10T14:27:17;1.17;;;0.95;;
55346;SDS011;41218;55.700;38.270;2024-01-10T14:32:18;0.40;;;0.40;;
55346;SDS011;41218;55.700;38.270;2024-01-10T14:37:18;0.47;;;0.47;;
55346;SDS011;41218;55.700;38.270;2024-01-10T14:42:21;1.10;;;1.00;;
55346;SDS011;41218;55.700;38.270;2024-01-10T14:47:21;0.52;;;0.38;;
55346;SDS011;41218;55.700;38.270;2024-01-10T14:52:23;0.90;;;0.75;;
55346;SDS011;41218;55.700;38.270;2024-01-10T14:57:25;0.73;;;0.73;;
55346;SDS011;41218;55.700;38.270;2024-01-10T15:02:25;0.95;;;0.95;;
55346;SDS011;41218;55.700;38.270;2024-01-10T15:07:26;0.60;;;0.60;;
55346;SDS011;41218;55.700;38.270;2024-01-10T15:12:27;0.95;;;0.80;;
55346;SDS011;41218;55.700;38.270;2024-01-10T15:17:28;1.10;;;1.02;;
55346;SDS011;41218;55.700;38.270;2024-01-10T15:22:29;0.30;;;0.30;;
55346;SDS011;41218;55.700;38.270;2024-01-10T15:27:29;1.35;;;0.68;;
55346;SDS011;41218;55.700;38.270;2024-01-10T15:32:30;0.47;;;0.47;;
55346;SDS011;41218;55.700;38.270;2024-01-10T15:37:31;0.38;;;0.38;;
55346;SDS011;41218;55.700;38.270;2024-01-10T15:42:31;0.40;;;0.40;;
55346;SDS011;41218;55.700;38.270;2024-01-10T15:47:32;0.45;;;0.45;;
55346;SDS011;41218;55.700;38.270;2024-01-10T15:52:33;0.50;;;0.45;;
55346;SDS011;41218;55.700;38.270;2024-01-10T15:57:34;1.80;;;0.95;;
55346;SDS011;41218;55.700;38.270;2024-01-10T16:02:34;0.95;;;0.47;;
55346;SDS011;41218;55.700;38.270;2024-01-10T16:07:35;2.72;;;1.00;;
55346;SDS011;41218;55.700;38.270;2024-01-10T16:12:36;0.17;;;0.17;;
55346;SDS011;41218;55.700;38.270;2024-01-10T16:17:36;0.43;;;0.40;;
55346;SDS011;41218;55.700;38.270;2024-01-10T16:22:37;0.30;;;0.30;;
55346;SDS011;41218;55.700;38.270;2024-01-10T16:27:37;0.43;;;0.43;;
55346;SDS011;41218;55.700;38.270;2024-01-10T16:32:38;0.43;;;0.40;;
55346;SDS011;41218;55.700;38.270;2024-01-10T16:37:38;1.70;;;0.82;;
55346;SDS011;41218;55.700;38.270;2024-01-10T16:42:39;0.60;;;0.60;;
55346;SDS011;41218;55.700;38.270;2024-01-10T16:47:40;0.98;;;0.60;;
55346;SDS011;41218;55.700;38.270;2024-01-10T16:52:40;0.30;;;0.30;;
55346;SDS011;41218;55.700;38.270;2024-01-10T16:57:41;1.25;;;1.15;;
55346;SDS011;41218;55.700;38.270;2024-01-10T17:02:42;1.10;;;0.90;;
55346;SDS011;41218;55.700;38.270;2024-01-10T17:07:42;1.33;;;0.90;;
55346;SDS011;41218;55.700;38.270;2024-01-10T17:12:43;2.08;;;1.30;;
55346;SDS011;41218;55.700;38.270;2024-01-10T17:17:44;0.60;;;0.60;;
55346;SDS011;41218;55.700;38.270;2024-01-10T17:22:45;1.30;;;0.93;;
55346;SDS011;41218;55.700;38.270;2024-01-10T17:27:46;0.63;;;0.63;;
55346;SDS011;41218;55.700;38.270;2024-01-10T17:32:47;0.50;;;0.50;;
55346;SDS011;41218;55.700;38.270;2024-01-10T17:37:48;0.73;;;0.73;;
55346;SDS011;41218;55.700;38.270;2024-01-10T17:42:48;2.70;;;0.60;;
55346;SDS011;41218;55.700;38.270;2024-01-10T17:47:49;2.55;;;1.30;;
55346;SDS011;41218;55.700;38.270;2024-01-10T17:52:50;4.53;;;2.10;;
55346;SDS011;41218;55.700;38.270;2024-01-10T17:57:50;6.05;;;2.40;;
55346;SDS011;41218;55.700;38.270;2024-01-10T18:02:51;0.52;;;0.52;;
55346;SDS011;41218;55.700;38.270;2024-01-10T18:07:51;2.20;;;1.20;;
55346;SDS011;41218;55.700;38.270;2024-01-10T18:12:52;1.60;;;0.95;;
55346;SDS011;41218;55.700;38.270;2024-01-10T18:17:54;0.70;;;0.70;;
55346;SDS011;41218;55.700;38.270;2024-01-10T18:22:55;4.10;;;2.30;;
55346;SDS011;41218;55.700;38.270;2024-01-10T18:27:56;0.63;;;0.55;;
55346;SDS011;41218;55.700;38.270;2024-01-10T18:32:56;0.45;;;0.45;;
55346;SDS011;41218;55.700;38.270;2024-01-10T18:37:59;0.95;;;0.70;;
55346;SDS011;41218;55.700;38.270;2024-01-10T18:43:00;1.50;;;1.10;;
55346;SDS011;41218;55.700;38.270;2024-01-10T18:48:02;7.75;;;3.13;;
55346;SDS011;41218;55.700;38.270;2024-01-10T18:53:03;0.93;;;0.93;;
55346;SDS011;41218;55.700;38.270;2024-01-10T18:58:03;1.30;;;1.17;;
55346;SDS011;41218;55.700;38.270;2024-01-10T19:03:05;0.50;;;0.45;;
55346;SDS011;41218;55.700;38.270;2024-01-10T19:08:06;1.05;;;0.93;;
55346;SDS011;41218;55.700;38.270;2024-01-10T19:13:06;2.47;;;1.17;;
55346;SDS011;41218;55.700;38.270;2024-01-10T19:18:07;2.13;;;0.93;;
55346;SDS011;41218;55.700;38.270;2024-01-10T19:23:08;2.65;;;0.95;;
55346;SDS011;41218;55.700;38.270;2024-01-10T19:28:08;4.75;;;2.25;;
55346;SDS011;41218;55.700;38.270;2024-01-10T19:33:09;3.00;;;1.98;;
55346;SDS011;41218;55.700;38.270;2024-01-10T19:38:10;5.07;;;1.73;;
55346;SDS011;41218;55.700;38.270;2024-01-10T19:43:10;1.67;;;0.60;;
55346;SDS011;41218;55.700;38.270;2024-01-10T19:48:11;1.05;;;0.65;;
55346;SDS011;41218;55.700;38.270;2024-01-10T19:53:11;1.00;;;0.95;;
55346;SDS011;41218;55.700;38.270;2024-01-10T19:58:13;2.33;;;0.95;;
55346;SDS011;41218;55.700;38.270;2024-01-10T20:03:13;1.50;;;0.47;;
55346;SDS011;41218;55.700;38.270;2024-01-10T20:08:14;0.40;;;0.40;;
55346;SDS011;41218;55.700;38.270;2024-01-10T20:13:15;1.35;;;0.85;;
55346;SDS011;41218;55.700;38.270;2024-01-10T20:18:16;3.67;;;1.02;;
55346;SDS011;41218;55.700;38.270;2024-01-10T20:23:16;2.40;;;1.45;;
55346;SDS011;41218;55.700;38.270;2024-01-10T20:28:17;3.00;;;1.08;;
55346;SDS011;41218;55.700;38.270;2024-01-10T20:33:21;5.35;;;2.65;;
55346;SDS011;41218;55.700;38.270;2024-01-10T20:38:21;1.80;;;0.63;;
55346;SDS011;41218;55.700;38.270;2024-01-10T20:43:22;2.47;;;1.05;;
55346;SDS011;41218;55.700;38.270;2024-01-10T20:48:26;2.72;;;1.30;;
55346;SDS011;41218;55.700;38.270;2024-01-10T20:53:27;1.23;;;1.17;;
55346;SDS011;41218;55.700;38.270;2024-01-10T20:58:27;5.53;;;2.35;;
55346;SDS011;41218;55.700;38.270;2024-01-10T21:03:28;8.73;;;3.13;;
55346;SDS011;41218;55.700;38.270;2024-01-10T21:08:29;7.78;;;2.63;;
55346;SDS011;41218;55.700;38.270;2024-01-10T21:13:30;4.40;;;1.00;;
55346;SDS011;41218;55.700;38.270;2024-01-10T21:18:30;2.95;;;1.40;;
55346;SDS011;41218;55.700;38.270;2024-01-10T21:23:31;1.30;;;0.90;;
55346;SDS011;41218;55.700;38.270;2024-01-10T21:28:32;8.25;;;3.15;;
55346;SDS011;41218;55.700;38.270;2024-01-10T21:33:32;6.75;;;3.42;;
55346;SDS011;41218;55.700;38.270;2024-01-10T21:38:33;0.60;;;0.60;;
55346;SDS011;41218;55.700;38.270;2024-01-10T21:43:33;0.55;;;0.47;;
55346;SDS011;41218;55.700;38.270;2024-01-10T21:48:35;1.00;;;0.90;;
55346;SDS011;41218;55.700;38.270;2024-01-10T21:53:36;1.30;;;0.85;;
55346;SDS011;41218;55.700;38.270;2024-01-10T21:58:39;2.55;;;1.13;;
55346;SDS011;41218;55.700;38.270;2024-01-10T22:03:41;0.50;;;0.50;;
55346;SDS011;41218;55.700;38.270;2024-01-10T22:08:42;2.03;;;1.00;;
55346;SDS011;41218;55.700;38.270;2024-01-10T22:13:44;3.75;;;1.65;;
55346;SDS011;41218;55.700;38.270;2024-01-10T22:18:44;5.57;;;1.58;;
55346;SDS011;41218;55.700;38.270;2024-01-10T22:23:45;3.75;;;1.08;;
55346;SDS011;41218;55.700;38.270;2024-01-10T22:33:46;0.73;;;0.73;;
55346;SDS011;41218;55.700;38.270;2024-01-10T22:38:46;1.83;;;1.40;;
55346;SDS011;41218;55.700;38.270;2024-01-10T22:43:47;1.88;;;1.13;;
55346;SDS011;41218;55.700;38.270;2024-01-10T22:48:48;5.55;;;2.47;;
55346;SDS011;41218;55.700;38.270;2024-01-10T22:53:50;1.45;;;1.02;;
55346;SDS011;41218;55.700;38.270;2024-01-10T22:58:50;4.78;;;2.03;;
55346;SDS011;41218;55.700;38.270;2024-01-10T23:08:51;3.30;;;1.37;;
55346;SDS011;41218;55.700;38.270;2024-01-10T23:18:52;3.70;;;1.90;;
55346;SDS011;41218;55.700;38.270;2024-01-10T23:28:53;1.93;;;1.07;;
55346;SDS011;41218;55.700;38.270;2024-01-10T23:33:54;2.20;;;0.95;;
55346;SDS011;41218;55.700;38.270;2024-01-10T23:43:55;1.10;;;0.70;;
55346;SDS011;41218;55.700;38.270;2024-01-10T23:53:56;3.13;;;1.13;;
